Terminal Aerodrome Forecast
Issued by NWS

Home | Current Version | Previous Version | Text Only | Print | Product List | Glossary On
Versions: 1 2 3 4 5 6 7 8 9 10 11 12 13 14 15 16 17 18 19 20 21 22 23 24 25 26 27
000
FTPA31 PHFO 041700 RRA
TAFITO
TAF
PHTO 041741Z 0418/0518 25005KT P6SM VCSH FEW020 SCT080
     FM042000 04012KT P6SM VCSH FEW025 BKN050
     FM050400 VRB04KT P6SM SCT020 BKN040
     FM050700 24005KT P6SM VCSH SCT020 BKN035=

USA.gov is the U.S. government's official web portal to all federal, state and local government web resources and services.